createdAt,value
2022-10-05T00:01:31.819Z,8.34
2022-10-05T00:04:21.725Z,8.11
2022-10-05T00:07:00.252Z,8.01
2022-10-05T00:09:31.100Z,7.93
2022-10-05T00:11:58.039Z,7.88
2022-10-05T00:14:35.538Z,7.89
2022-10-05T00:17:05.165Z,7.90
2022-10-05T00:19:38.181Z,7.90
2022-10-05T00:22:15.758Z,7.85
2022-10-05T00:24:43.474Z,7.76
2022-10-05T00:27:31.270Z,7.69
2022-10-05T00:30:02.574Z,7.62
2022-10-05T00:32:30.018Z,7.58
2022-10-05T00:34:57.726Z,7.57
2022-10-05T00:37:24.779Z,7.75
2022-10-05T00:39:53.478Z,7.88
2022-10-05T00:42:26.293Z,7.85
2022-10-05T00:45:03.893Z,7.76
2022-10-05T00:47:50.967Z,7.67
2022-10-05T00:50:27.727Z,7.48
2022-10-05T00:53:22.766Z,7.45
2022-10-05T00:56:13.044Z,7.48
2022-10-05T00:59:01.623Z,7.49
2022-10-05T01:01:54.420Z,7.49
2022-10-05T01:04:29.989Z,7.43
2022-10-05T01:07:07.898Z,7.40
2022-10-05T01:10:11.229Z,7.36
2022-10-05T01:12:50.314Z,7.38
2022-10-05T01:15:20.061Z,7.31
2022-10-05T01:18:22.683Z,7.25
2022-10-05T01:20:54.758Z,7.13
2022-10-05T01:23:40.604Z,6.99
2022-10-05T01:26:23.339Z,6.83
2022-10-05T01:29:05.243Z,6.79
2022-10-05T01:31:37.466Z,6.79
2022-10-05T01:34:17.119Z,6.65
2022-10-05T01:37:08.844Z,6.53
2022-10-05T01:39:47.360Z,6.47
2022-10-05T01:42:48.073Z,6.45
2022-10-05T01:45:38.630Z,6.43
2022-10-05T01:49:02.588Z,6.64
2022-10-05T01:51:51.311Z,6.84
2022-10-05T01:54:36.796Z,6.98
2022-10-05T01:57:19.141Z,6.88
2022-10-05T02:00:09.033Z,6.81
2022-10-05T02:02:47.752Z,6.62
2022-10-05T02:05:22.346Z,6.58
2022-10-05T02:07:56.077Z,6.54
2022-10-05T02:10:30.359Z,6.52
2022-10-05T02:13:15.621Z,6.59
2022-10-05T02:15:46.264Z,6.69
2022-10-05T02:18:30.255Z,6.84
2022-10-05T02:21:02.993Z,6.99
2022-10-05T02:23:33.659Z,7.24
2022-10-05T02:26:01.509Z,7.34
2022-10-05T02:28:55.482Z,7.37
2022-10-05T02:31:50.459Z,7.31
2022-10-05T02:34:22.673Z,7.22
2022-10-05T02:37:10.319Z,7.04
2022-10-05T02:39:47.741Z,6.87
2022-10-05T02:42:32.951Z,6.96
2022-10-05T02:44:59.559Z,7.18
2022-10-05T02:47:43.259Z,7.45
2022-10-05T02:50:16.200Z,7.63
2022-10-05T02:53:12.754Z,7.73
2022-10-05T02:56:20.175Z,7.60
2022-10-05T02:58:50.224Z,7.31
2022-10-05T03:01:28.100Z,7.05
2022-10-05T03:04:11.663Z,6.91
2022-10-05T03:07:07.690Z,6.79
2022-10-05T03:09:41.382Z,6.73
2022-10-05T03:12:17.694Z,6.67
2022-10-05T03:15:09.583Z,6.65
2022-10-05T03:18:21.734Z,6.65
2022-10-05T03:20:57.642Z,6.69
2022-10-05T03:23:33.178Z,6.85
2022-10-05T03:26:09.001Z,6.85
2022-10-05T03:28:58.809Z,6.79
2022-10-05T03:31:46.105Z,6.72
2022-10-05T03:34:22.502Z,6.66
2022-10-05T03:37:31.585Z,6.58
2022-10-05T03:40:09.550Z,6.44
2022-10-05T03:42:39.843Z,6.43
2022-10-05T03:45:25.594Z,6.39
2022-10-05T03:48:01.832Z,6.22
2022-10-05T03:50:54.505Z,6.09
2022-10-05T03:53:38.548Z,5.97
2022-10-05T03:56:13.690Z,5.95
2022-10-05T03:59:03.009Z,5.97
2022-10-05T04:01:39.805Z,5.99
2022-10-05T04:04:13.736Z,5.91
2022-10-05T04:06:49.225Z,5.85
2022-10-05T04:09:39.521Z,5.78
2022-10-05T04:12:15.353Z,5.82
2022-10-05T04:14:48.471Z,5.82
2022-10-05T04:17:19.378Z,5.86
2022-10-05T04:20:02.238Z,5.91
2022-10-05T04:22:37.260Z,5.98
2022-10-05T04:25:19.031Z,6.06
2022-10-05T04:28:09.829Z,6.14
2022-10-05T04:30:41.776Z,6.17
2022-10-05T04:33:11.652Z,6.11
2022-10-05T04:36:00.044Z,6.08
2022-10-05T04:39:05.309Z,6.10
2022-10-05T04:41:52.174Z,6.15
2022-10-05T04:44:48.251Z,6.11
2022-10-05T04:47:29.346Z,6.02
2022-10-05T04:50:34.233Z,5.90
2022-10-05T04:53:33.574Z,5.91
2022-10-05T04:56:07.056Z,5.83
2022-10-05T04:58:45.609Z,5.84
2022-10-05T05:01:35.872Z,5.80
2022-10-05T05:04:27.380Z,5.82
2022-10-05T05:07:15.252Z,5.80
2022-10-05T05:09:41.916Z,5.77
2022-10-05T05:12:43.727Z,5.67
2022-10-05T05:15:30.205Z,5.55
2022-10-05T05:18:12.763Z,5.45
2022-10-05T05:20:45.334Z,5.27
2022-10-05T05:23:44.472Z,5.21
2022-10-05T05:26:29.603Z,5.13
2022-10-05T05:29:33.896Z,5.16
2022-10-05T05:32:24.998Z,5.26
2022-10-05T05:34:57.982Z,5.29
2022-10-05T05:37:52.178Z,5.21
2022-10-05T05:40:35.200Z,5.14
2022-10-05T05:43:20.874Z,5.25
2022-10-05T05:46:34.015Z,5.25
2022-10-05T05:49:22.781Z,5.20
2022-10-05T05:52:16.103Z,5.27
2022-10-05T05:54:54.749Z,5.32
2022-10-05T05:57:38.772Z,5.39
2022-10-05T06:00:15.100Z,5.53
2022-10-05T06:03:15.050Z,5.65
2022-10-05T06:05:49.901Z,5.74
2022-10-05T06:08:29.123Z,5.97
2022-10-05T06:11:11.228Z,6.25
2022-10-05T06:13:42.592Z,6.47
2022-10-05T06:16:39.139Z,6.65
2022-10-05T06:19:13.953Z,6.93
2022-10-05T06:21:40.908Z,7.14
2022-10-05T06:24:31.820Z,7.22
2022-10-05T06:27:20.534Z,7.46
2022-10-05T06:30:04.634Z,7.70
2022-10-05T06:32:49.927Z,7.80
2022-10-05T06:35:17.780Z,7.99
2022-10-05T06:38:08.156Z,8.13
2022-10-05T06:40:59.466Z,8.33
2022-10-05T06:43:29.449Z,8.55
2022-10-05T06:46:29.128Z,8.93
2022-10-05T06:49:19.148Z,9.25
2022-10-05T06:52:16.279Z,9.54
2022-10-05T06:55:30.333Z,9.79
2022-10-05T06:58:18.636Z,10.13
2022-10-05T07:01:02.964Z,10.41
2022-10-05T07:03:49.530Z,10.72
2022-10-05T07:06:34.175Z,11.16
2022-10-05T07:09:37.530Z,11.60
2022-10-05T07:12:09.968Z,11.94
2022-10-05T07:14:48.659Z,12.23
2022-10-05T07:17:44.312Z,12.54
2022-10-05T07:20:17.377Z,12.86
2022-10-05T07:23:23.069Z,13.14
2022-10-05T07:26:01.900Z,13.23
2022-10-05T07:28:39.367Z,13.34
2022-10-05T07:31:31.648Z,13.49
2022-10-05T07:34:15.445Z,13.77
2022-10-05T07:37:09.793Z,14.07
2022-10-05T07:40:01.088Z,14.31
2022-10-05T07:43:08.898Z,14.65
2022-10-05T07:45:46.852Z,15.09
2022-10-05T07:48:33.209Z,15.56
2022-10-05T07:51:27.587Z,15.93
2022-10-05T07:54:13.629Z,16.17
2022-10-05T07:56:44.499Z,16.23
2022-10-05T07:59:22.337Z,16.44
2022-10-05T08:01:59.723Z,16.56
2022-10-05T08:04:55.895Z,16.82
2022-10-05T08:09:59.501Z,17.28
2022-10-05T08:13:07.671Z,17.39
2022-10-05T08:15:43.244Z,17.37
2022-10-05T08:18:39.743Z,17.41
2022-10-05T08:21:12.010Z,17.59
2022-10-05T08:23:55.273Z,17.53
2022-10-05T08:26:33.597Z,17.69
2022-10-05T08:29:19.021Z,17.92
2022-10-05T08:32:02.550Z,17.50
2022-10-05T08:34:47.869Z,17.10
2022-10-05T08:37:21.410Z,17.41
2022-10-05T08:39:52.649Z,17.68
2022-10-05T08:42:35.454Z,18.03
2022-10-05T08:45:20.929Z,18.32
2022-10-05T08:48:15.457Z,17.85
2022-10-05T08:51:03.885Z,17.63
2022-10-05T08:53:45.592Z,18.27
2022-10-05T08:56:42.458Z,18.30
2022-10-05T08:59:47.364Z,17.91
2022-10-05T09:02:38.990Z,17.98
2022-10-05T09:05:24.474Z,18.01
2022-10-05T09:08:03.629Z,18.07
2022-10-05T09:10:58.205Z,18.42
2022-10-05T09:13:39.607Z,18.94
2022-10-05T09:16:15.284Z,18.95
2022-10-05T09:19:02.197Z,19.04
2022-10-05T09:21:36.747Z,18.83
2022-10-05T09:24:12.549Z,18.61
2022-10-05T09:26:59.296Z,18.62
2022-10-05T09:29:31.888Z,18.67
2022-10-05T09:32:34.316Z,18.64
2022-10-05T09:35:09.985Z,19.08
2022-10-05T09:37:36.585Z,19.05
2022-10-05T09:40:27.957Z,19.00
2022-10-05T09:43:03.771Z,18.86
2022-10-05T09:45:35.806Z,18.60
2022-10-05T09:48:25.948Z,18.33
2022-10-05T09:51:10.822Z,18.13
2022-10-05T09:53:52.685Z,17.91
2022-10-05T09:56:40.934Z,17.83
2022-10-05T09:59:25.887Z,17.72
2022-10-05T10:02:16.400Z,17.70
2022-10-05T10:04:56.318Z,17.89
2022-10-05T10:07:53.968Z,17.89
2022-10-05T10:10:58.358Z,18.28
2022-10-05T10:14:00.861Z,18.67
2022-10-05T10:16:40.901Z,18.64
2022-10-05T10:19:35.655Z,18.57
2022-10-05T10:22:05.337Z,18.75
2022-10-05T10:24:53.763Z,18.58
2022-10-05T10:27:33.737Z,18.69
2022-10-05T10:30:09.429Z,18.72
2022-10-05T10:32:51.330Z,18.76
2022-10-05T10:38:42.312Z,18.89
2022-10-05T10:41:39.586Z,18.74
2022-10-05T10:44:27.761Z,18.75
2022-10-05T10:47:13.686Z,18.68
2022-10-05T10:50:30.317Z,19.17
2022-10-05T10:53:12.654Z,19.29
2022-10-05T10:56:07.545Z,19.76
2022-10-05T10:58:59.678Z,20.00
2022-10-05T11:01:54.997Z,20.18
2022-10-05T11:04:40.610Z,20.56
2022-10-05T11:07:22.466Z,20.74
2022-10-05T11:10:09.056Z,20.44
2022-10-05T11:12:51.629Z,20.28
2022-10-05T11:15:52.519Z,20.19
2022-10-05T11:18:41.137Z,20.70
2022-10-05T11:21:17.032Z,20.94
2022-10-05T11:24:13.086Z,20.88
2022-10-05T11:26:39.917Z,21.04
2022-10-05T11:29:06.485Z,21.16
2022-10-05T11:31:42.489Z,21.18
2022-10-05T11:34:40.905Z,21.08
2022-10-05T11:37:13.521Z,21.08
2022-10-05T11:40:02.896Z,20.85
2022-10-05T11:42:41.964Z,20.90
2022-10-05T11:45:23.996Z,20.97
2022-10-05T11:48:21.901Z,20.75
2022-10-05T11:51:17.469Z,21.02
2022-10-05T11:54:06.692Z,20.96
2022-10-05T11:56:57.307Z,20.98
2022-10-05T11:59:37.193Z,21.15
2022-10-05T12:02:43.101Z,20.99
2022-10-05T12:05:32.635Z,21.23
2022-10-05T12:08:35.969Z,21.47
2022-10-05T12:11:15.679Z,21.52
2022-10-05T12:13:48.424Z,21.45
2022-10-05T12:16:28.745Z,21.51
2022-10-05T12:19:09.082Z,21.79
2022-10-05T12:21:44.291Z,21.89
2022-10-05T12:24:30.184Z,21.85
2022-10-05T12:27:02.809Z,21.76
2022-10-05T12:29:35.378Z,21.81
2022-10-05T12:32:13.466Z,21.52
2022-10-05T12:35:03.290Z,21.57
2022-10-05T12:37:54.199Z,21.65
2022-10-05T12:40:31.978Z,21.74
2022-10-05T12:43:20.588Z,21.82
2022-10-05T12:46:03.511Z,21.92
2022-10-05T12:49:14.926Z,21.52
2022-10-05T12:51:48.099Z,21.54
2022-10-05T12:54:33.105Z,21.57
2022-10-05T12:57:18.878Z,21.58
2022-10-05T12:59:55.086Z,21.63
2022-10-05T13:02:32.592Z,21.69
2022-10-05T13:05:02.330Z,21.72
2022-10-05T13:07:35.205Z,21.85
2022-10-05T13:10:24.683Z,21.94
2022-10-05T13:13:16.205Z,21.71
2022-10-05T13:16:15.795Z,21.64
2022-10-05T13:19:07.604Z,21.93
2022-10-05T13:21:53.532Z,22.03
2022-10-05T13:24:59.498Z,22.11
2022-10-05T13:27:35.516Z,22.02
2022-10-05T13:30:05.821Z,21.83
2022-10-05T13:32:36.453Z,21.82
2022-10-05T13:35:13.462Z,21.85
2022-10-05T13:38:01.803Z,22.00
2022-10-05T13:40:45.120Z,21.93
2022-10-05T13:43:23.674Z,21.88
2022-10-05T13:45:52.766Z,21.86
2022-10-05T13:48:50.525Z,21.92
2022-10-05T13:51:24.568Z,21.97
2022-10-05T13:54:14.298Z,22.00
2022-10-05T13:56:46.151Z,22.12
2022-10-05T13:59:40.284Z,22.16
2022-10-05T14:02:21.038Z,22.12
2022-10-05T14:04:59.019Z,22.21
2022-10-05T14:07:34.223Z,22.11
2022-10-05T14:10:03.122Z,21.89
2022-10-05T14:12:39.722Z,21.78
2022-10-05T14:15:42.084Z,21.62
2022-10-05T14:18:24.316Z,21.48
2022-10-05T14:21:09.795Z,21.43
2022-10-05T14:23:36.465Z,21.46
2022-10-05T14:26:04.434Z,21.52
2022-10-05T14:28:38.468Z,21.60
2022-10-05T14:31:26.607Z,21.63
2022-10-05T14:33:53.437Z,21.61
2022-10-05T14:36:36.277Z,21.51
2022-10-05T14:39:05.168Z,21.31
2022-10-05T14:41:37.626Z,21.33
2022-10-05T14:44:13.445Z,21.31
2022-10-05T14:46:53.254Z,21.38
2022-10-05T14:49:36.237Z,21.43
2022-10-05T14:52:28.828Z,21.48
2022-10-05T14:55:08.790Z,21.44
2022-10-05T14:58:09.206Z,21.52
2022-10-05T15:00:48.955Z,21.42
2022-10-05T15:03:31.874Z,21.30
2022-10-05T15:06:01.718Z,21.19
2022-10-05T15:08:45.261Z,21.13
2022-10-05T15:11:36.819Z,21.03
2022-10-05T15:14:14.673Z,21.02
2022-10-05T15:16:42.217Z,21.03
2022-10-05T15:20:05.195Z,21.01
2022-10-05T15:22:41.163Z,20.82
2022-10-05T15:25:22.262Z,20.71
2022-10-05T15:28:04.134Z,20.56
2022-10-05T15:30:32.567Z,20.36
2022-10-05T15:33:35.546Z,20.27
2022-10-05T15:36:14.891Z,20.16
2022-10-05T15:38:44.758Z,20.06
2022-10-05T15:41:17.770Z,19.90
2022-10-05T15:43:47.206Z,19.80
2022-10-05T15:46:35.631Z,19.67
2022-10-05T15:49:11.598Z,19.55
2022-10-05T15:51:45.237Z,19.49
2022-10-05T15:54:40.058Z,19.37
2022-10-05T15:57:25.102Z,19.30
2022-10-05T16:00:02.122Z,19.21
2022-10-05T16:02:51.349Z,19.15
2022-10-05T16:05:57.874Z,19.08
2022-10-05T16:08:54.037Z,19.02
2022-10-05T16:11:33.340Z,18.90
2022-10-05T16:14:19.406Z,18.83
2022-10-05T16:17:10.828Z,18.68
2022-10-05T16:19:56.622Z,18.63
2022-10-05T16:22:37.853Z,18.54
2022-10-05T16:25:23.446Z,18.45
2022-10-05T16:28:22.902Z,18.38
2022-10-05T16:31:01.191Z,18.29
2022-10-05T16:33:56.637Z,18.24
2022-10-05T16:36:43.132Z,18.15
2022-10-05T16:39:20.532Z,18.06
2022-10-05T16:41:59.976Z,18.02
2022-10-05T16:44:48.048Z,17.93
2022-10-05T16:47:33.114Z,17.87
2022-10-05T16:50:17.877Z,17.76
2022-10-05T16:52:50.539Z,17.69
2022-10-05T16:55:38.830Z,17.63
2022-10-05T16:58:15.940Z,17.56
2022-10-05T17:01:02.129Z,17.48
2022-10-05T17:04:00.162Z,17.47
2022-10-05T17:06:30.179Z,17.35
2022-10-05T17:09:19.317Z,17.32
2022-10-05T17:12:20.794Z,17.26
2022-10-05T17:15:20.768Z,17.19
2022-10-05T17:18:16.664Z,17.12
2022-10-05T17:20:43.293Z,17.00
2022-10-05T17:23:31.289Z,16.89
2022-10-05T17:26:34.565Z,16.84
2022-10-05T17:29:15.565Z,16.76
2022-10-05T17:32:09.580Z,16.66
2022-10-05T17:34:56.893Z,16.59
2022-10-05T17:37:38.013Z,16.52
2022-10-05T17:40:30.752Z,16.45
2022-10-05T17:43:18.374Z,16.37
2022-10-05T17:45:45.049Z,16.33
2022-10-05T17:48:12.899Z,16.27
2022-10-05T17:51:01.182Z,16.19
2022-10-05T17:54:01.585Z,16.15
2022-10-05T17:56:29.659Z,16.08
2022-10-05T17:58:59.469Z,16.07
2022-10-05T18:01:30.298Z,15.99
2022-10-05T18:04:24.871Z,15.98
2022-10-05T18:07:15.267Z,15.94
2022-10-05T18:10:20.115Z,15.88
2022-10-05T18:12:51.214Z,15.80
2022-10-05T18:15:24.115Z,15.76
2022-10-05T18:17:56.113Z,15.74
2022-10-05T18:20:26.568Z,15.73
2022-10-05T18:23:23.181Z,15.73
2022-10-05T18:26:01.405Z,15.74
2022-10-05T18:29:14.087Z,15.71
2022-10-05T18:31:51.348Z,15.72
2022-10-05T18:34:38.508Z,15.72
2022-10-05T18:37:21.586Z,15.70
2022-10-05T18:40:01.711Z,15.68
2022-10-05T18:42:28.381Z,15.63
2022-10-05T18:45:21.933Z,15.58
2022-10-05T18:48:07.420Z,15.54
2022-10-05T18:50:51.348Z,15.48
2022-10-05T18:53:30.140Z,15.49
2022-10-05T18:56:21.647Z,15.42
2022-10-05T18:59:00.866Z,15.28
2022-10-05T19:01:55.318Z,15.19
2022-10-05T19:04:43.757Z,15.12
2022-10-05T19:07:23.206Z,14.99
2022-10-05T19:09:57.678Z,14.91
2022-10-05T19:12:41.238Z,14.90
2022-10-05T19:15:17.305Z,14.84
2022-10-05T19:17:49.967Z,14.82
2022-10-05T19:20:19.472Z,14.81
2022-10-05T19:23:09.477Z,14.75
2022-10-05T19:26:11.922Z,14.80
2022-10-05T19:29:09.033Z,14.78
2022-10-05T19:31:44.506Z,14.78
2022-10-05T19:34:56.578Z,14.78
2022-10-05T19:37:42.405Z,14.74
2022-10-05T19:40:24.424Z,14.70
2022-10-05T19:43:15.591Z,14.66
2022-10-05T19:46:14.076Z,14.67
2022-10-05T19:48:48.584Z,14.66
2022-10-05T19:51:28.794Z,14.65
2022-10-05T19:54:02.480Z,14.58
2022-10-05T19:56:34.324Z,14.64
2022-10-05T19:59:17.476Z,14.59
2022-10-05T20:01:50.154Z,14.59
2022-10-05T20:04:32.099Z,14.59
2022-10-05T20:06:59.717Z,14.56
2022-10-05T20:09:26.404Z,14.55
2022-10-05T20:11:53.574Z,14.56
2022-10-05T20:14:29.306Z,14.56
2022-10-05T20:17:44.466Z,14.54
2022-10-05T20:20:45.750Z,14.45
2022-10-05T20:23:28.031Z,14.43
2022-10-05T20:26:13.323Z,14.45
2022-10-05T20:28:40.192Z,14.40
2022-10-05T20:31:08.041Z,14.42
2022-10-05T20:33:34.947Z,14.32
2022-10-05T20:36:03.713Z,14.30
2022-10-05T20:38:31.640Z,14.23
2022-10-05T20:40:58.640Z,14.23
2022-10-05T20:43:25.318Z,14.20
2022-10-05T20:45:52.331Z,14.18
2022-10-05T20:48:19.592Z,14.18
2022-10-05T20:50:47.339Z,14.12
2022-10-05T20:53:14.042Z,14.16
2022-10-05T20:55:40.749Z,14.13
2022-10-05T20:58:09.070Z,14.11
2022-10-05T21:00:54.614Z,14.11
2022-10-05T21:03:21.321Z,14.05
2022-10-05T21:05:48.025Z,14.00
2022-10-05T21:08:15.275Z,13.95
2022-10-05T21:10:41.949Z,13.92
2022-10-05T21:13:09.146Z,13.76
2022-10-05T21:15:35.837Z,13.81
2022-10-05T21:18:02.521Z,13.74
2022-10-05T21:20:29.166Z,13.70
2022-10-05T21:22:55.770Z,13.70
2022-10-05T21:25:22.591Z,13.68
2022-10-05T21:27:50.312Z,13.70
2022-10-05T21:30:17.184Z,13.69
2022-10-05T21:32:44.820Z,13.69
2022-10-05T21:35:11.666Z,13.65
2022-10-05T21:37:38.486Z,13.55
2022-10-05T21:40:05.590Z,13.64
2022-10-05T21:42:32.591Z,13.64
2022-10-05T21:44:59.338Z,13.50
2022-10-05T21:47:26.346Z,13.60
2022-10-05T21:49:54.015Z,13.58
2022-10-05T21:52:21.489Z,13.49
2022-10-05T21:54:48.212Z,13.51
2022-10-05T21:57:15.437Z,13.50
2022-10-05T21:59:42.641Z,13.41
2022-10-05T22:02:09.312Z,13.38
2022-10-05T22:04:35.982Z,13.30
2022-10-05T22:07:10.553Z,13.27
2022-10-05T22:09:37.193Z,13.18
2022-10-05T22:12:04.002Z,13.04
2022-10-05T22:14:31.497Z,13.03
2022-10-05T22:16:58.171Z,13.11
2022-10-05T22:19:24.830Z,13.05
2022-10-05T22:21:51.541Z,12.95
2022-10-05T22:24:18.179Z,12.91
2022-10-05T22:26:47.305Z,12.89
2022-10-05T22:29:15.955Z,12.84
2022-10-05T22:31:43.003Z,12.94
2022-10-05T22:34:09.741Z,12.91
2022-10-05T22:36:37.462Z,12.93
2022-10-05T22:39:04.454Z,12.79
2022-10-05T22:41:31.233Z,12.61
2022-10-05T22:43:57.890Z,12.41
2022-10-05T22:46:26.127Z,12.23
2022-10-05T22:48:52.816Z,12.17
2022-10-05T22:51:19.522Z,12.09
2022-10-05T22:53:46.180Z,12.01
2022-10-05T22:56:14.370Z,11.97
2022-10-05T22:58:42.369Z,11.91
2022-10-05T23:01:12.231Z,11.86
2022-10-05T23:03:39.551Z,11.80
2022-10-05T23:06:15.264Z,11.80
2022-10-05T23:08:43.124Z,11.76
2022-10-05T23:11:18.962Z,11.71
2022-10-05T23:13:45.660Z,11.65
2022-10-05T23:16:19.858Z,11.60
2022-10-05T23:18:52.621Z,11.51
2022-10-05T23:21:21.105Z,11.42
2022-10-05T23:23:51.782Z,11.44
2022-10-05T23:26:22.826Z,11.34
2022-10-05T23:28:50.289Z,11.25
2022-10-05T23:31:20.531Z,11.22
2022-10-05T23:33:47.493Z,11.16
2022-10-05T23:36:17.661Z,11.02
2022-10-05T23:38:44.831Z,11.04
2022-10-05T23:41:12.446Z,11.01
2022-10-05T23:43:40.442Z,11.02
2022-10-05T23:46:08.136Z,10.99
2022-10-05T23:48:38.164Z,11.01
2022-10-05T23:51:12.831Z,10.97
2022-10-05T23:53:40.308Z,10.93
2022-10-05T23:56:07.423Z,10.88
2022-10-05T23:58:34.728Z,10.80
